sensor_id;sensor_type;location;lat;lon;timestamp;P1;durP1;ratioP1;P2;durP2;ratioP2
80961;SDS011;70424;55.154;14.722;2024-03-02T08:17:56;59.13;;;31.80;;
80961;SDS011;70424;55.154;14.722;2024-03-02T08:20:21;59.60;;;32.10;;
80961;SDS011;70424;55.154;14.722;2024-03-02T08:22:47;58.83;;;30.98;;
80961;SDS011;70424;55.154;14.722;2024-03-02T08:25:12;65.38;;;34.47;;
80961;SDS011;70424;55.154;14.722;2024-03-02T08:27:37;59.17;;;31.70;;
80961;SDS011;70424;55.154;14.722;2024-03-02T08:30:04;54.03;;;30.25;;
80961;SDS011;70424;55.154;14.722;2024-03-02T08:32:31;57.47;;;30.75;;
80961;SDS011;70424;55.154;14.722;2024-03-02T08:34:56;56.28;;;30.52;;
80961;SDS011;70424;55.154;14.722;2024-03-02T08:37:22;54.33;;;28.95;;
80961;SDS011;70424;55.154;14.722;2024-03-02T08:39:47;54.10;;;28.50;;
80961;SDS011;70424;55.154;14.722;2024-03-02T08:42:13;47.55;;;26.83;;
80961;SDS011;70424;55.154;14.722;2024-03-02T08:44:38;48.80;;;28.00;;
80961;SDS011;70424;55.154;14.722;2024-03-02T08:47:04;43.05;;;26.30;;
80961;SDS011;70424;55.154;14.722;2024-03-02T08:49:29;43.85;;;24.92;;
80961;SDS011;70424;55.154;14.722;2024-03-02T08:51:55;43.25;;;23.75;;
80961;SDS011;70424;55.154;14.722;2024-03-02T08:54:21;47.97;;;26.98;;
80961;SDS011;70424;55.154;14.722;2024-03-02T08:56:47;45.05;;;24.77;;
80961;SDS011;70424;55.154;14.722;2024-03-02T08:59:13;48.00;;;26.25;;
80961;SDS011;70424;55.154;14.722;2024-03-02T09:01:39;50.35;;;27.50;;
80961;SDS011;70424;55.154;14.722;2024-03-02T09:04:06;51.25;;;28.25;;
80961;SDS011;70424;55.154;14.722;2024-03-02T09:06:33;64.38;;;32.10;;
80961;SDS011;70424;55.154;14.722;2024-03-02T09:08:59;62.58;;;32.00;;
80961;SDS011;70424;55.154;14.722;2024-03-02T09:11:25;63.60;;;33.88;;
80961;SDS011;70424;55.154;14.722;2024-03-02T09:13:50;75.57;;;37.08;;
80961;SDS011;70424;55.154;14.722;2024-03-02T09:16:16;68.60;;;32.30;;
80961;SDS011;70424;55.154;14.722;2024-03-02T09:18:41;72.63;;;33.35;;
80961;SDS011;70424;55.154;14.722;2024-03-02T09:21:07;69.95;;;33.35;;
80961;SDS011;70424;55.154;14.722;2024-03-02T09:23:33;80.90;;;37.08;;
80961;SDS011;70424;55.154;14.722;2024-03-02T09:25:59;74.10;;;35.17;;
80961;SDS011;70424;55.154;14.722;2024-03-02T09:28:24;76.10;;;36.10;;
80961;SDS011;70424;55.154;14.722;2024-03-02T09:30:50;77.70;;;35.47;;
80961;SDS011;70424;55.154;14.722;2024-03-02T09:33:15;77.38;;;36.08;;
80961;SDS011;70424;55.154;14.722;2024-03-02T09:35:40;72.90;;;33.90;;
80961;SDS011;70424;55.154;14.722;2024-03-02T09:38:06;78.35;;;36.10;;
80961;SDS011;70424;55.154;14.722;2024-03-02T09:40:31;85.43;;;36.47;;
80961;SDS011;70424;55.154;14.722;2024-03-02T09:42:57;75.55;;;35.92;;
80961;SDS011;70424;55.154;14.722;2024-03-02T09:45:23;73.38;;;33.80;;
80961;SDS011;70424;55.154;14.722;2024-03-02T09:47:49;78.78;;;34.38;;
80961;SDS011;70424;55.154;14.722;2024-03-02T09:50:15;71.05;;;33.35;;
80961;SDS011;70424;55.154;14.722;2024-03-02T09:52:43;78.63;;;35.63;;
80961;SDS011;70424;55.154;14.722;2024-03-02T09:55:09;80.35;;;36.53;;
80961;SDS011;70424;55.154;14.722;2024-03-02T09:57:36;75.43;;;34.00;;
80961;SDS011;70424;55.154;14.722;2024-03-02T10:00:01;80.13;;;34.78;;
80961;SDS011;70424;55.154;14.722;2024-03-02T10:02:28;72.57;;;34.35;;
80961;SDS011;70424;55.154;14.722;2024-03-02T10:04:53;69.43;;;33.72;;
80961;SDS011;70424;55.154;14.722;2024-03-02T10:07:18;75.47;;;34.25;;
80961;SDS011;70424;55.154;14.722;2024-03-02T10:09:45;71.18;;;33.90;;
80961;SDS011;70424;55.154;14.722;2024-03-02T10:12:12;73.25;;;34.95;;
80961;SDS011;70424;55.154;14.722;2024-03-02T10:14:38;73.07;;;35.60;;
80961;SDS011;70424;55.154;14.722;2024-03-02T10:17:05;72.68;;;33.63;;
80961;SDS011;70424;55.154;14.722;2024-03-02T10:19:34;71.88;;;33.95;;
80961;SDS011;70424;55.154;14.722;2024-03-02T10:22:02;71.90;;;34.28;;
80961;SDS011;70424;55.154;14.722;2024-03-02T10:24:36;70.22;;;35.88;;
80961;SDS011;70424;55.154;14.722;2024-03-02T10:27:06;77.03;;;35.80;;
80961;SDS011;70424;55.154;14.722;2024-03-02T10:29:36;67.13;;;32.92;;
80961;SDS011;70424;55.154;14.722;2024-03-02T10:34:27;60.75;;;32.08;;
80961;SDS011;70424;55.154;14.722;2024-03-02T10:36:53;77.18;;;36.20;;
80961;SDS011;70424;55.154;14.722;2024-03-02T10:39:19;69.65;;;32.65;;
80961;SDS011;70424;55.154;14.722;2024-03-02T10:41:46;73.50;;;34.40;;
80961;SDS011;70424;55.154;14.722;2024-03-02T10:44:14;67.28;;;33.42;;
80961;SDS011;70424;55.154;14.722;2024-03-02T10:46:42;68.75;;;31.15;;
80961;SDS011;70424;55.154;14.722;2024-03-02T10:49:09;64.15;;;30.67;;
80961;SDS011;70424;55.154;14.722;2024-03-02T10:51:35;69.72;;;33.20;;
80961;SDS011;70424;55.154;14.722;2024-03-02T10:54:03;70.15;;;33.20;;
80961;SDS011;70424;55.154;14.722;2024-03-02T10:56:30;69.30;;;33.92;;
80961;SDS011;70424;55.154;14.722;2024-03-02T10:59:03;64.32;;;34.10;;
80961;SDS011;70424;55.154;14.722;2024-03-02T11:01:47;71.50;;;34.13;;
80961;SDS011;70424;55.154;14.722;2024-03-02T11:04:13;67.47;;;33.40;;
80961;SDS011;70424;55.154;14.722;2024-03-02T11:06:43;67.72;;;32.63;;
80961;SDS011;70424;55.154;14.722;2024-03-02T11:09:16;63.80;;;32.05;;
80961;SDS011;70424;55.154;14.722;2024-03-02T11:11:44;66.85;;;33.15;;
80961;SDS011;70424;55.154;14.722;2024-03-02T11:14:16;68.22;;;32.33;;
80961;SDS011;70424;55.154;14.722;2024-03-02T11:16:43;61.63;;;32.05;;
80961;SDS011;70424;55.154;14.722;2024-03-02T11:19:11;67.68;;;32.03;;
80961;SDS011;70424;55.154;14.722;2024-03-02T11:21:38;66.45;;;32.35;;
80961;SDS011;70424;55.154;14.722;2024-03-02T11:26:57;68.53;;;33.33;;
80961;SDS011;70424;55.154;14.722;2024-03-02T11:29:56;65.60;;;34.60;;
80961;SDS011;70424;55.154;14.722;2024-03-02T11:32:21;63.38;;;33.17;;
80961;SDS011;70424;55.154;14.722;2024-03-02T11:34:50;70.53;;;35.15;;
80961;SDS011;70424;55.154;14.722;2024-03-02T11:37:17;68.43;;;33.40;;
80961;SDS011;70424;55.154;14.722;2024-03-02T11:39:48;65.55;;;32.58;;
80961;SDS011;70424;55.154;14.722;2024-03-02T11:42:15;70.82;;;34.22;;
80961;SDS011;70424;55.154;14.722;2024-03-02T11:44:47;67.57;;;32.30;;
80961;SDS011;70424;55.154;14.722;2024-03-02T11:47:16;65.65;;;32.92;;
80961;SDS011;70424;55.154;14.722;2024-03-02T11:49:49;67.93;;;33.08;;
80961;SDS011;70424;55.154;14.722;2024-03-02T11:52:16;66.95;;;33.55;;
80961;SDS011;70424;55.154;14.722;2024-03-02T11:54:44;62.38;;;32.45;;
80961;SDS011;70424;55.154;14.722;2024-03-02T11:57:17;67.75;;;34.15;;
80961;SDS011;70424;55.154;14.722;2024-03-02T11:59:44;63.22;;;32.92;;
80961;SDS011;70424;55.154;14.722;2024-03-02T12:02:17;67.22;;;34.78;;
80961;SDS011;70424;55.154;14.722;2024-03-02T12:04:46;69.43;;;35.45;;
80961;SDS011;70424;55.154;14.722;2024-03-02T12:07:19;63.25;;;33.22;;
80961;SDS011;70424;55.154;14.722;2024-03-02T12:10:09;63.97;;;33.58;;
80961;SDS011;70424;55.154;14.722;2024-03-02T12:12:34;61.42;;;31.60;;
80961;SDS011;70424;55.154;14.722;2024-03-02T12:14:59;66.53;;;33.58;;
80961;SDS011;70424;55.154;14.722;2024-03-02T12:17:25;63.28;;;33.33;;
80961;SDS011;70424;55.154;14.722;2024-03-02T12:19:51;60.97;;;31.83;;
80961;SDS011;70424;55.154;14.722;2024-03-02T12:22:17;63.80;;;33.03;;
80961;SDS011;70424;55.154;14.722;2024-03-02T12:24:43;61.22;;;30.88;;
80961;SDS011;70424;55.154;14.722;2024-03-02T12:27:10;60.50;;;32.05;;
80961;SDS011;70424;55.154;14.722;2024-03-02T12:29:37;65.60;;;33.73;;
80961;SDS011;70424;55.154;14.722;2024-03-02T12:32:03;67.32;;;32.88;;
80961;SDS011;70424;55.154;14.722;2024-03-02T12:34:31;67.57;;;32.75;;
80961;SDS011;70424;55.154;14.722;2024-03-02T12:36:56;62.58;;;33.22;;
80961;SDS011;70424;55.154;14.722;2024-03-02T12:39:22;67.45;;;34.65;;
80961;SDS011;70424;55.154;14.722;2024-03-02T12:41:48;62.17;;;32.78;;
80961;SDS011;70424;55.154;14.722;2024-03-02T12:44:15;70.63;;;34.65;;
80961;SDS011;70424;55.154;14.722;2024-03-02T12:46:41;63.45;;;33.03;;
80961;SDS011;70424;55.154;14.722;2024-03-02T12:49:14;62.50;;;32.33;;
80961;SDS011;70424;55.154;14.722;2024-03-02T12:51:45;61.83;;;31.42;;
80961;SDS011;70424;55.154;14.722;2024-03-02T12:54:16;65.43;;;34.15;;
80961;SDS011;70424;55.154;14.722;2024-03-02T12:56:42;62.45;;;33.30;;
80961;SDS011;70424;55.154;14.722;2024-03-02T12:59:17;65.15;;;33.90;;
80961;SDS011;70424;55.154;14.722;2024-03-02T13:01:53;68.70;;;35.53;;
80961;SDS011;70424;55.154;14.722;2024-03-02T13:04:23;67.03;;;34.40;;
80961;SDS011;70424;55.154;14.722;2024-03-02T13:06:50;63.58;;;33.15;;
80961;SDS011;70424;55.154;14.722;2024-03-02T13:09:16;66.05;;;33.25;;
80961;SDS011;70424;55.154;14.722;2024-03-02T13:11:42;69.65;;;36.30;;
80961;SDS011;70424;55.154;14.722;2024-03-02T13:14:07;74.00;;;34.30;;
80961;SDS011;70424;55.154;14.722;2024-03-02T13:16:38;70.80;;;36.20;;
80961;SDS011;70424;55.154;14.722;2024-03-02T13:19:06;65.93;;;35.35;;
80961;SDS011;70424;55.154;14.722;2024-03-02T13:21:33;65.35;;;35.28;;
80961;SDS011;70424;55.154;14.722;2024-03-02T13:23:58;70.22;;;35.55;;
80961;SDS011;70424;55.154;14.722;2024-03-02T13:26:24;74.25;;;35.10;;
80961;SDS011;70424;55.154;14.722;2024-03-02T13:28:49;69.30;;;34.38;;
80961;SDS011;70424;55.154;14.722;2024-03-02T13:31:15;68.38;;;34.58;;
80961;SDS011;70424;55.154;14.722;2024-03-02T13:33:40;74.45;;;36.83;;
80961;SDS011;70424;55.154;14.722;2024-03-02T13:36:06;69.97;;;36.22;;
80961;SDS011;70424;55.154;14.722;2024-03-02T13:38:32;67.65;;;35.08;;
80961;SDS011;70424;55.154;14.722;2024-03-02T13:40:57;70.30;;;34.42;;
80961;SDS011;70424;55.154;14.722;2024-03-02T13:43:23;73.50;;;35.20;;
80961;SDS011;70424;55.154;14.722;2024-03-02T13:45:49;72.25;;;37.08;;
80961;SDS011;70424;55.154;14.722;2024-03-02T13:48:14;66.63;;;34.83;;
80961;SDS011;70424;55.154;14.722;2024-03-02T13:50:40;71.97;;;37.45;;
80961;SDS011;70424;55.154;14.722;2024-03-02T13:53:05;74.53;;;36.63;;
80961;SDS011;70424;55.154;14.722;2024-03-02T13:55:32;68.32;;;35.70;;
80961;SDS011;70424;55.154;14.722;2024-03-02T13:57:58;65.80;;;35.35;;
80961;SDS011;70424;55.154;14.722;2024-03-02T14:00:23;65.07;;;34.58;;
80961;SDS011;70424;55.154;14.722;2024-03-02T14:02:49;62.80;;;33.42;;
80961;SDS011;70424;55.154;14.722;2024-03-02T14:05:15;68.75;;;35.03;;
80961;SDS011;70424;55.154;14.722;2024-03-02T14:07:41;68.40;;;35.67;;
80961;SDS011;70424;55.154;14.722;2024-03-02T14:10:07;64.93;;;36.58;;
80961;SDS011;70424;55.154;14.722;2024-03-02T14:12:33;63.15;;;33.75;;
80961;SDS011;70424;55.154;14.722;2024-03-02T14:14:58;69.35;;;35.72;;
80961;SDS011;70424;55.154;14.722;2024-03-02T14:17:24;63.05;;;34.30;;
80961;SDS011;70424;55.154;14.722;2024-03-02T14:19:50;69.50;;;36.03;;
80961;SDS011;70424;55.154;14.722;2024-03-02T14:22:16;66.00;;;35.95;;
80961;SDS011;70424;55.154;14.722;2024-03-02T14:24:42;65.43;;;34.45;;
80961;SDS011;70424;55.154;14.722;2024-03-02T14:27:08;67.22;;;35.47;;
80961;SDS011;70424;55.154;14.722;2024-03-02T14:29:34;65.30;;;35.85;;
80961;SDS011;70424;55.154;14.722;2024-03-02T14:32:02;63.58;;;34.42;;
80961;SDS011;70424;55.154;14.722;2024-03-02T14:34:28;66.25;;;34.22;;
80961;SDS011;70424;55.154;14.722;2024-03-02T14:36:54;64.40;;;33.60;;
80961;SDS011;70424;55.154;14.722;2024-03-02T14:39:19;64.05;;;34.67;;
80961;SDS011;70424;55.154;14.722;2024-03-02T14:41:45;63.22;;;34.22;;
80961;SDS011;70424;55.154;14.722;2024-03-02T14:44:10;67.50;;;34.65;;
80961;SDS011;70424;55.154;14.722;2024-03-02T14:46:35;67.38;;;34.95;;
80961;SDS011;70424;55.154;14.722;2024-03-02T14:49:01;70.05;;;34.42;;
80961;SDS011;70424;55.154;14.722;2024-03-02T14:51:27;68.82;;;36.35;;
80961;SDS011;70424;55.154;14.722;2024-03-02T14:53:52;63.03;;;34.63;;
80961;SDS011;70424;55.154;14.722;2024-03-02T14:56:17;64.57;;;36.08;;
80961;SDS011;70424;55.154;14.722;2024-03-02T14:58:43;65.63;;;37.08;;
80961;SDS011;70424;55.154;14.722;2024-03-02T15:01:08;63.25;;;33.67;;
80961;SDS011;70424;55.154;14.722;2024-03-02T15:03:34;70.78;;;36.42;;
80961;SDS011;70424;55.154;14.722;2024-03-02T15:06:01;65.75;;;36.22;;
80961;SDS011;70424;55.154;14.722;2024-03-02T15:08:28;71.45;;;36.53;;
80961;SDS011;70424;55.154;14.722;2024-03-02T15:10:53;62.47;;;34.42;;
80961;SDS011;70424;55.154;14.722;2024-03-02T15:13:21;68.22;;;36.30;;
80961;SDS011;70424;55.154;14.722;2024-03-02T15:15:47;63.05;;;32.83;;
80961;SDS011;70424;55.154;14.722;2024-03-02T15:18:12;70.93;;;37.00;;
80961;SDS011;70424;55.154;14.722;2024-03-02T15:20:38;65.72;;;35.17;;
80961;SDS011;70424;55.154;14.722;2024-03-02T15:23:03;66.45;;;34.75;;
80961;SDS011;70424;55.154;14.722;2024-03-02T15:25:28;64.68;;;35.30;;
80961;SDS011;70424;55.154;14.722;2024-03-02T15:27:54;64.45;;;33.15;;
80961;SDS011;70424;55.154;14.722;2024-03-02T15:30:20;68.78;;;36.30;;
80961;SDS011;70424;55.154;14.722;2024-03-02T15:32:45;60.97;;;34.53;;
80961;SDS011;70424;55.154;14.722;2024-03-02T15:35:11;64.10;;;33.88;;
80961;SDS011;70424;55.154;14.722;2024-03-02T15:37:36;59.70;;;34.63;;
80961;SDS011;70424;55.154;14.722;2024-03-02T15:40:02;59.47;;;33.70;;
80961;SDS011;70424;55.154;14.722;2024-03-02T15:42:32;61.40;;;34.10;;
80961;SDS011;70424;55.154;14.722;2024-03-02T15:44:58;64.30;;;35.70;;
80961;SDS011;70424;55.154;14.722;2024-03-02T15:47:23;59.90;;;33.65;;
80961;SDS011;70424;55.154;14.722;2024-03-02T15:49:48;61.17;;;35.10;;
80961;SDS011;70424;55.154;14.722;2024-03-02T15:52:14;59.78;;;34.92;;
80961;SDS011;70424;55.154;14.722;2024-03-02T15:54:43;57.20;;;33.92;;
80961;SDS011;70424;55.154;14.722;2024-03-02T15:57:09;55.60;;;32.72;;
80961;SDS011;70424;55.154;14.722;2024-03-02T15:59:34;57.53;;;34.50;;
80961;SDS011;70424;55.154;14.722;2024-03-02T16:02:00;57.38;;;32.70;;
80961;SDS011;70424;55.154;14.722;2024-03-02T16:04:25;58.63;;;34.05;;
80961;SDS011;70424;55.154;14.722;2024-03-02T16:06:51;60.05;;;34.10;;
80961;SDS011;70424;55.154;14.722;2024-03-02T16:09:16;60.28;;;35.63;;
80961;SDS011;70424;55.154;14.722;2024-03-02T16:11:42;55.20;;;31.65;;
80961;SDS011;70424;55.154;14.722;2024-03-02T16:14:07;60.72;;;33.95;;
80961;SDS011;70424;55.154;14.722;2024-03-02T16:16:33;59.20;;;34.33;;
80961;SDS011;70424;55.154;14.722;2024-03-02T16:18:58;59.13;;;33.20;;
80961;SDS011;70424;55.154;14.722;2024-03-02T16:21:24;55.08;;;31.48;;
80961;SDS011;70424;55.154;14.722;2024-03-02T16:23:51;62.58;;;35.03;;
80961;SDS011;70424;55.154;14.722;2024-03-02T16:26:16;57.80;;;33.38;;
80961;SDS011;70424;55.154;14.722;2024-03-02T16:28:42;59.08;;;34.45;;
80961;SDS011;70424;55.154;14.722;2024-03-02T16:31:07;57.58;;;33.70;;
80961;SDS011;70424;55.154;14.722;2024-03-02T16:33:35;58.67;;;34.25;;
80961;SDS011;70424;55.154;14.722;2024-03-02T16:36:00;58.42;;;34.67;;
80961;SDS011;70424;55.154;14.722;2024-03-02T16:38:26;57.30;;;32.70;;
80961;SDS011;70424;55.154;14.722;2024-03-02T16:40:51;53.22;;;31.50;;
80961;SDS011;70424;55.154;14.722;2024-03-02T16:43:17;56.00;;;33.30;;
80961;SDS011;70424;55.154;14.722;2024-03-02T16:45:42;59.97;;;35.25;;
80961;SDS011;70424;55.154;14.722;2024-03-02T16:48:08;57.20;;;33.50;;
80961;SDS011;70424;55.154;14.722;2024-03-02T16:50:33;57.00;;;35.13;;
80961;SDS011;70424;55.154;14.722;2024-03-02T16:52:58;54.40;;;32.92;;
80961;SDS011;70424;55.154;14.722;2024-03-02T16:55:24;54.35;;;32.28;;
80961;SDS011;70424;55.154;14.722;2024-03-02T16:57:49;51.92;;;31.83;;
80961;SDS011;70424;55.154;14.722;2024-03-02T17:00:15;55.53;;;34.33;;
80961;SDS011;70424;55.154;14.722;2024-03-02T17:02:40;52.72;;;31.55;;
80961;SDS011;70424;55.154;14.722;2024-03-02T17:05:12;54.20;;;33.20;;
80961;SDS011;70424;55.154;14.722;2024-03-02T17:07:37;56.67;;;33.45;;
80961;SDS011;70424;55.154;14.722;2024-03-02T17:10:03;55.10;;;33.10;;
80961;SDS011;70424;55.154;14.722;2024-03-02T17:12:29;52.35;;;31.20;;
80961;SDS011;70424;55.154;14.722;2024-03-02T17:14:55;54.60;;;32.83;;
80961;SDS011;70424;55.154;14.722;2024-03-02T17:17:20;56.42;;;31.98;;
80961;SDS011;70424;55.154;14.722;2024-03-02T17:19:45;58.80;;;33.17;;
80961;SDS011;70424;55.154;14.722;2024-03-02T17:22:11;58.22;;;34.33;;
80961;SDS011;70424;55.154;14.722;2024-03-02T17:24:36;59.97;;;32.97;;
80961;SDS011;70424;55.154;14.722;2024-03-02T17:27:02;52.65;;;32.00;;
80961;SDS011;70424;55.154;14.722;2024-03-02T17:29:27;55.08;;;32.80;;
80961;SDS011;70424;55.154;14.722;2024-03-02T17:31:53;55.80;;;33.33;;
80961;SDS011;70424;55.154;14.722;2024-03-02T17:34:20;61.17;;;32.78;;
80961;SDS011;70424;55.154;14.722;2024-03-02T17:36:46;51.90;;;31.67;;
80961;SDS011;70424;55.154;14.722;2024-03-02T17:39:12;57.33;;;32.35;;
80961;SDS011;70424;55.154;14.722;2024-03-02T17:41:37;56.72;;;31.73;;
80961;SDS011;70424;55.154;14.722;2024-03-02T17:44:03;54.33;;;33.50;;
80961;SDS011;70424;55.154;14.722;2024-03-02T17:46:28;57.38;;;32.88;;
80961;SDS011;70424;55.154;14.722;2024-03-02T17:48:54;61.20;;;36.63;;
80961;SDS011;70424;55.154;14.722;2024-03-02T17:51:19;58.50;;;35.13;;
80961;SDS011;70424;55.154;14.722;2024-03-02T17:53:44;56.55;;;33.92;;
80961;SDS011;70424;55.154;14.722;2024-03-02T17:56:10;55.70;;;32.65;;
80961;SDS011;70424;55.154;14.722;2024-03-02T17:58:36;57.50;;;32.50;;
80961;SDS011;70424;55.154;14.722;2024-03-02T18:01:02;51.20;;;31.77;;
80961;SDS011;70424;55.154;14.722;2024-03-02T18:03:28;55.88;;;31.48;;
80961;SDS011;70424;55.154;14.722;2024-03-02T18:05:53;53.15;;;31.42;;
80961;SDS011;70424;55.154;14.722;2024-03-02T18:08:19;54.80;;;31.58;;
80961;SDS011;70424;55.154;14.722;2024-03-02T18:10:45;64.32;;;36.55;;
80961;SDS011;70424;55.154;14.722;2024-03-02T18:13:10;124.20;;;63.97;;
80961;SDS011;70424;55.154;14.722;2024-03-02T18:15:35;71.72;;;40.15;;
80961;SDS011;70424;55.154;14.722;2024-03-02T18:18:01;58.22;;;33.05;;
80961;SDS011;70424;55.154;14.722;2024-03-02T18:20:27;55.53;;;31.73;;
80961;SDS011;70424;55.154;14.722;2024-03-02T18:22:53;54.72;;;32.42;;
80961;SDS011;70424;55.154;14.722;2024-03-02T18:25:21;52.45;;;31.25;;
80961;SDS011;70424;55.154;14.722;2024-03-02T18:27:46;52.28;;;31.40;;
80961;SDS011;70424;55.154;14.722;2024-03-02T18:30:12;49.53;;;29.25;;
80961;SDS011;70424;55.154;14.722;2024-03-02T18:32:38;53.40;;;31.90;;
80961;SDS011;70424;55.154;14.722;2024-03-02T18:35:04;47.83;;;27.95;;
80961;SDS011;70424;55.154;14.722;2024-03-02T18:37:33;51.13;;;29.58;;
80961;SDS011;70424;55.154;14.722;2024-03-02T18:39:58;48.38;;;30.45;;
80961;SDS011;70424;55.154;14.722;2024-03-02T18:42:23;47.50;;;30.23;;
80961;SDS011;70424;55.154;14.722;2024-03-02T18:44:49;50.35;;;29.60;;
80961;SDS011;70424;55.154;14.722;2024-03-02T18:47:15;51.90;;;30.05;;
80961;SDS011;70424;55.154;14.722;2024-03-02T18:49:43;49.58;;;29.73;;
80961;SDS011;70424;55.154;14.722;2024-03-02T18:52:12;49.63;;;30.08;;
80961;SDS011;70424;55.154;14.722;2024-03-02T18:54:37;47.97;;;28.90;;
80961;SDS011;70424;55.154;14.722;2024-03-02T18:57:03;49.75;;;29.38;;
80961;SDS011;70424;55.154;14.722;2024-03-02T18:59:29;47.28;;;29.00;;
80961;SDS011;70424;55.154;14.722;2024-03-02T19:01:55;48.90;;;30.17;;
80961;SDS011;70424;55.154;14.722;2024-03-02T19:04:21;46.40;;;29.05;;
80961;SDS011;70424;55.154;14.722;2024-03-02T19:06:46;44.97;;;29.08;;
80961;SDS011;70424;55.154;14.722;2024-03-02T19:09:11;45.88;;;29.23;;
80961;SDS011;70424;55.154;14.722;2024-03-02T19:11:37;48.40;;;29.92;;
80961;SDS011;70424;55.154;14.722;2024-03-02T19:14:02;49.42;;;29.75;;
80961;SDS011;70424;55.154;14.722;2024-03-02T19:16:28;48.60;;;28.05;;
80961;SDS011;70424;55.154;14.722;2024-03-02T19:18:53;46.85;;;29.02;;
80961;SDS011;70424;55.154;14.722;2024-03-02T19:21:19;47.20;;;29.08;;
80961;SDS011;70424;55.154;14.722;2024-03-02T19:23:44;46.05;;;28.70;;
80961;SDS011;70424;55.154;14.722;2024-03-02T19:26:09;45.05;;;27.48;;
80961;SDS011;70424;55.154;14.722;2024-03-02T19:28:41;48.10;;;29.60;;
80961;SDS011;70424;55.154;14.722;2024-03-02T19:31:06;45.03;;;29.02;;
80961;SDS011;70424;55.154;14.722;2024-03-02T19:33:31;44.38;;;28.02;;
80961;SDS011;70424;55.154;14.722;2024-03-02T19:35:57;43.80;;;28.60;;
80961;SDS011;70424;55.154;14.722;2024-03-02T19:38:22;45.30;;;27.75;;
80961;SDS011;70424;55.154;14.722;2024-03-02T19:40:50;46.72;;;28.02;;
80961;SDS011;70424;55.154;14.722;2024-03-02T19:43:15;46.88;;;27.70;;
80961;SDS011;70424;55.154;14.722;2024-03-02T19:45:42;48.35;;;27.83;;
80961;SDS011;70424;55.154;14.722;2024-03-02T19:48:09;42.38;;;27.30;;
80961;SDS011;70424;55.154;14.722;2024-03-02T19:50:34;45.88;;;27.02;;
80961;SDS011;70424;55.154;14.722;2024-03-02T19:53:01;45.88;;;27.25;;
80961;SDS011;70424;55.154;14.722;2024-03-02T19:55:27;46.72;;;28.98;;
80961;SDS011;70424;55.154;14.722;2024-03-02T19:57:55;44.45;;;27.38;;
80961;SDS011;70424;55.154;14.722;2024-03-02T20:00:21;44.60;;;28.67;;
80961;SDS011;70424;55.154;14.722;2024-03-02T20:02:46;43.40;;;27.55;;
80961;SDS011;70424;55.154;14.722;2024-03-02T20:05:12;43.88;;;27.58;;
80961;SDS011;70424;55.154;14.722;2024-03-02T20:07:38;43.50;;;27.45;;
80961;SDS011;70424;55.154;14.722;2024-03-02T20:10:09;47.75;;;29.90;;
80961;SDS011;70424;55.154;14.722;2024-03-02T20:12:36;45.85;;;27.50;;
80961;SDS011;70424;55.154;14.722;2024-03-02T20:15:02;46.38;;;28.58;;
80961;SDS011;70424;55.154;14.722;2024-03-02T20:17:28;46.42;;;29.35;;
80961;SDS011;70424;55.154;14.722;2024-03-02T20:19:54;45.72;;;28.63;;
80961;SDS011;70424;55.154;14.722;2024-03-02T20:22:20;45.70;;;29.17;;
80961;SDS011;70424;55.154;14.722;2024-03-02T20:24:45;49.08;;;28.27;;
80961;SDS011;70424;55.154;14.722;2024-03-02T20:27:11;44.20;;;26.77;;
80961;SDS011;70424;55.154;14.722;2024-03-02T20:29:36;44.10;;;27.58;;
80961;SDS011;70424;55.154;14.722;2024-03-02T20:32:02;42.72;;;26.15;;
80961;SDS011;70424;55.154;14.722;2024-03-02T20:34:27;47.28;;;29.40;;
80961;SDS011;70424;55.154;14.722;2024-03-02T20:36:53;47.03;;;28.58;;
80961;SDS011;70424;55.154;14.722;2024-03-02T20:39:18;42.97;;;28.00;;
80961;SDS011;70424;55.154;14.722;2024-03-02T20:41:44;44.08;;;27.80;;
80961;SDS011;70424;55.154;14.722;2024-03-02T20:44:10;47.47;;;29.05;;
80961;SDS011;70424;55.154;14.722;2024-03-02T20:46:44;45.08;;;28.20;;
80961;SDS011;70424;55.154;14.722;2024-03-02T20:49:10;44.97;;;28.60;;
80961;SDS011;70424;55.154;14.722;2024-03-02T20:51:36;46.40;;;28.63;;
80961;SDS011;70424;55.154;14.722;2024-03-02T20:54:02;45.53;;;28.17;;
80961;SDS011;70424;55.154;14.722;2024-03-02T20:56:33;47.97;;;28.75;;
80961;SDS011;70424;55.154;14.722;2024-03-02T20:59:01;45.55;;;27.83;;
80961;SDS011;70424;55.154;14.722;2024-03-02T21:01:27;47.05;;;30.35;;
80961;SDS011;70424;55.154;14.722;2024-03-02T21:03:53;42.45;;;28.20;;
80961;SDS011;70424;55.154;14.722;2024-03-02T21:06:19;45.67;;;27.55;;
80961;SDS011;70424;55.154;14.722;2024-03-02T21:08:44;45.22;;;27.17;;
80961;SDS011;70424;55.154;14.722;2024-03-02T21:11:10;45.13;;;27.77;;
80961;SDS011;70424;55.154;14.722;2024-03-02T21:13:36;43.40;;;27.52;;
80961;SDS011;70424;55.154;14.722;2024-03-02T21:16:02;46.83;;;28.80;;
80961;SDS011;70424;55.154;14.722;2024-03-02T21:18:28;45.10;;;27.50;;
80961;SDS011;70424;55.154;14.722;2024-03-02T21:20:53;45.03;;;28.42;;
80961;SDS011;70424;55.154;14.722;2024-03-02T21:23:19;46.10;;;28.95;;
80961;SDS011;70424;55.154;14.722;2024-03-02T21:25:44;44.47;;;29.10;;
80961;SDS011;70424;55.154;14.722;2024-03-02T21:28:09;46.55;;;28.58;;
80961;SDS011;70424;55.154;14.722;2024-03-02T21:30:35;48.30;;;29.40;;
80961;SDS011;70424;55.154;14.722;2024-03-02T21:33:04;46.42;;;29.08;;
80961;SDS011;70424;55.154;14.722;2024-03-02T21:35:30;44.30;;;28.00;;
80961;SDS011;70424;55.154;14.722;2024-03-02T21:38:00;47.13;;;28.10;;
80961;SDS011;70424;55.154;14.722;2024-03-02T21:40:28;44.13;;;27.80;;
80961;SDS011;70424;55.154;14.722;2024-03-02T21:42:56;43.97;;;28.17;;
80961;SDS011;70424;55.154;14.722;2024-03-02T21:45:22;46.50;;;28.85;;
80961;SDS011;70424;55.154;14.722;2024-03-02T21:47:47;45.78;;;27.42;;
80961;SDS011;70424;55.154;14.722;2024-03-02T21:50:13;46.80;;;28.48;;
80961;SDS011;70424;55.154;14.722;2024-03-02T21:52:39;44.47;;;28.90;;
80961;SDS011;70424;55.154;14.722;2024-03-02T21:55:05;48.05;;;29.00;;
80961;SDS011;70424;55.154;14.722;2024-03-02T21:57:33;48.58;;;29.38;;
80961;SDS011;70424;55.154;14.722;2024-03-02T21:59:59;48.60;;;30.88;;
80961;SDS011;70424;55.154;14.722;2024-03-02T22:02:25;47.53;;;28.15;;
80961;SDS011;70424;55.154;14.722;2024-03-02T22:04:50;45.75;;;28.45;;
80961;SDS011;70424;55.154;14.722;2024-03-02T22:07:15;47.75;;;29.73;;
80961;SDS011;70424;55.154;14.722;2024-03-02T22:09:41;48.13;;;29.08;;
80961;SDS011;70424;55.154;14.722;2024-03-02T22:12:06;43.80;;;27.60;;
80961;SDS011;70424;55.154;14.722;2024-03-02T22:14:32;50.47;;;29.58;;
80961;SDS011;70424;55.154;14.722;2024-03-02T22:16:57;50.53;;;30.88;;
80961;SDS011;70424;55.154;14.722;2024-03-02T22:19:23;45.72;;;28.05;;
80961;SDS011;70424;55.154;14.722;2024-03-02T22:21:48;52.40;;;30.08;;
80961;SDS011;70424;55.154;14.722;2024-03-02T22:24:14;48.35;;;30.13;;
80961;SDS011;70424;55.154;14.722;2024-03-02T22:26:40;44.53;;;28.40;;